Time;durP1;ratioP1;P1;durP2;ratioP2;P2;SDS_P1;SDS_P2;PMS_P1;PMS_P2;Temp;Humidity;BMP_temperature;BMP_pressure;BME280_temperature;BME280_humidity;BME280_pressure;Samples;Min_cycle;Max_cycle;Signal;HPM_P1;HPM_P2
2022/09/20 00:01:10;;;;;;;;;;;;;;;11.05;100.00;102151.00;5055825;28;19951;-72
2022/09/20 00:03:37;;;;;;;;;;;;;;;11.05;100.00;102149.22;5054286;28;19998;-72
2022/09/20 00:06:03;;;;;;;;;;;;;;;11.06;100.00;102152.75;5039132;28;20005;-72
2022/09/20 00:08:28;;;;;;;;;;;;;;;11.07;100.00;102151.81;5053920;28;19929;-72
2022/09/20 00:11:01;;;;;;;;;;;;;;;11.07;100.00;102149.19;5052624;28;19998;-72
2022/09/20 00:13:26;;;;;;;;;;;;;;;11.07;100.00;102154.47;5055659;28;19943;-72
2022/09/20 00:15:52;;;;;;;;;;;;;;;11.06;99.87;102150.94;5054399;28;20364;-72
2022/09/20 00:18:17;;;;;;;;;;;;;;;11.09;100.00;102150.00;5054552;28;19929;-72
2022/09/20 00:20:46;;;;;;;;;;;;;;;11.10;100.00;102151.72;5053763;28;21544;-72
2022/09/20 00:23:12;;;;;;;;;;;;;;;11.12;99.75;102155.22;5052629;28;19931;-72
2022/09/20 00:25:38;;;;;;;;;;;;;;;11.14;99.77;102159.56;5054981;28;19932;-72
2022/09/20 00:28:03;;;;;;;;;;;;;;;11.17;99.72;102158.59;5055556;28;20065;-72
2022/09/20 00:30:30;;;;;;;;;;;;;;;11.19;99.36;102166.53;5053368;28;19924;-73
2022/09/20 00:32:55;;;;;;;;;;;;;;;11.21;99.67;102159.38;5053524;28;19929;-73
2022/09/20 00:35:20;;;;;;;;;;;;;;;11.19;99.78;102151.50;5058215;28;20383;-72
2022/09/20 00:37:46;;;;;;;;;;;;;;;11.20;100.00;102157.66;5053120;28;19924;-72
2022/09/20 00:40:13;;;;;;;;;;;;;;;11.18;99.79;102156.84;5052298;28;20147;-72
2022/09/20 00:42:38;;;;;;;;;;;;;;;11.17;99.44;102157.75;5054774;28;19933;-72
2022/09/20 00:45:04;;;;;;;;;;;;;;;11.17;99.28;102158.59;5055110;28;19928;-73
2022/09/20 00:47:31;;;;;;;;;;;;;;;11.17;98.75;102157.75;5055897;28;19933;-72
2022/09/20 00:50:12;;;;;;;;;;;;;;;11.17;98.35;102153.28;5056524;28;20042;-72
2022/09/20 00:52:37;;;;;;;;;;;;;;;11.19;97.97;102158.56;5051934;28;19921;-72
2022/09/20 00:55:04;;;;;;;;;;;;;;;11.19;97.66;102162.09;5053629;28;19928;-72
2022/09/20 00:57:34;;;;;;;;;;;;;;;11.19;97.25;102155.91;5055276;28;20457;-72
2022/09/20 00:59:59;;;;;;;;;;;;;;;11.20;97.17;102158.53;5056340;28;19937;-72
2022/09/20 01:02:25;;;;;;;;;;;;;;;11.20;96.65;102174.44;5046787;28;19947;-72
2022/09/20 01:04:51;;;;;;;;;;;;;;;11.21;96.52;102164.69;5054966;28;20227;-73
2022/09/20 01:07:17;;;;;;;;;;;;;;;11.20;96.99;102161.19;5054615;28;20461;-72
2022/09/20 01:09:42;;;;;;;;;;;;;;;11.18;97.41;102165.66;5052098;28;19929;-72
2022/09/20 01:12:09;;;;;;;;;;;;;;;11.14;98.13;102159.56;5055285;28;19952;-73
2022/09/20 01:14:35;;;;;;;;;;;;;;;11.08;98.48;102164.16;5050065;28;19956;-72
2022/09/20 01:17:01;;;;;;;;;;;;;;;11.01;99.01;102166.13;5033363;28;20089;-72
2022/09/20 01:19:31;;;;;;;;;;;;;;;10.95;99.35;102155.69;5050975;28;19931;-72
2022/09/20 01:21:56;;;;;;;;;;;;;;;10.90;99.53;102154.91;5053710;28;20136;-73
2022/09/20 01:24:25;;;;;;;;;;;;;;;10.86;99.87;102144.38;5055823;28;19921;-72
2022/09/20 01:26:57;;;;;;;;;;;;;;;10.82;99.72;102147.16;5056570;28;19977;-72
2022/09/20 01:29:22;;;;;;;;;;;;;;;10.80;100.00;102146.34;5054844;28;19951;-72
2022/09/20 01:31:49;;;;;;;;;;;;;;;10.77;100.00;102146.41;5055221;28;20524;-73
2022/09/20 01:34:41;;;;;;;;;;;;;;;10.72;100.00;102141.22;5045893;28;19951;-72
2022/09/20 01:37:16;;;;;;;;;;;;;;;10.71;100.00;102156.25;5051732;28;20345;-72
2022/09/20 01:39:44;;;;;;;;;;;;;;;10.69;100.00;102154.56;5051324;28;20332;-72
2022/09/20 01:42:11;;;;;;;;;;;;;;;10.67;100.00;102156.38;5055678;28;19928;-72
2022/09/20 01:44:36;;;;;;;;;;;;;;;10.65;100.00;102159.06;5052866;28;20346;-72
2022/09/20 01:47:04;;;;;;;;;;;;;;;10.64;100.00;102159.97;5055618;28;19932;-73
2022/09/20 01:49:36;;;;;;;;;;;;;;;10.63;100.00;102155.59;5054572;28;20030;-72
2022/09/20 01:52:37;;;;;;;;;;;;;;;10.64;100.00;102165.28;5053223;28;20023;-72
2022/09/20 01:55:21;;;;;;;;;;;;;;;10.64;100.00;102156.44;4995962;28;19925;-72
2022/09/20 01:57:51;;;;;;;;;;;;;;;10.66;100.00;102160.78;5048526;28;19929;-72
2022/09/20 02:00:22;;;;;;;;;;;;;;;10.66;100.00;102163.44;5054634;28;19935;-72
2022/09/20 02:03:07;;;;;;;;;;;;;;;10.66;100.00;102166.09;5053951;28;19935;-72
2022/09/20 02:05:44;;;;;;;;;;;;;;;10.66;100.00;102167.84;5044621;28;19966;-72
2022/09/20 02:08:28;;;;;;;;;;;;;;;10.66;100.00;102162.56;5052189;28;19932;-72
2022/09/20 02:11:13;;;;;;;;;;;;;;;10.65;100.00;102167.00;5060153;28;20295;-72
2022/09/20 02:13:38;;;;;;;;;;;;;;;10.64;100.00;102152.03;5052707;28;20016;-72
2022/09/20 02:16:12;;;;;;;;;;;;;;;10.61;100.00;102146.78;5053587;28;20278;-72
2022/09/20 02:18:40;;;;;;;;;;;;;;;10.59;100.00;102149.47;5051727;28;20011;-72
2022/09/20 02:21:15;;;;;;;;;;;;;;;10.59;100.00;102159.22;5052837;28;19929;-72
2022/09/20 02:23:43;;;;;;;;;;;;;;;10.58;100.00;102160.13;5052375;28;19979;-72
2022/09/20 02:26:12;;;;;;;;;;;;;;;10.56;100.00;102160.16;5055542;28;19924;-72
2022/09/20 02:28:43;;;;;;;;;;;;;;;10.55;100.00;102161.06;5054379;28;19970;-72
2022/09/20 02:31:21;;;;;;;;;;;;;;;10.53;100.00;102173.47;5054709;28;20376;-72
2022/09/20 02:33:47;;;;;;;;;;;;;;;10.51;100.00;102174.41;5053119;28;20003;-72
2022/09/20 02:36:12;;;;;;;;;;;;;;;10.50;100.00;102177.97;5056051;28;20005;-72
2022/09/20 02:38:43;;;;;;;;;;;;;;;10.48;100.00;102179.78;5052858;28;19924;-72
2022/09/20 02:41:32;;;;;;;;;;;;;;;10.46;100.00;102178.03;5052237;28;19925;-72
2022/09/20 02:44:03;;;;;;;;;;;;;;;10.48;100.00;102179.78;5049728;28;20357;-72
2022/09/20 02:46:30;;;;;;;;;;;;;;;10.49;100.00;102192.09;5052121;28;20132;-72
2022/09/20 02:49:01;;;;;;;;;;;;;;;10.48;100.00;102175.34;5050544;28;19924;-73
2022/09/20 02:51:30;;;;;;;;;;;;;;;10.48;100.00;102185.06;5051361;28;19925;-72
2022/09/20 02:54:14;;;;;;;;;;;;;;;10.45;100.00;102181.59;5052163;28;19962;-72
2022/09/20 02:56:58;;;;;;;;;;;;;;;10.46;100.00;102178.03;5051232;28;19935;-72
2022/09/20 02:59:26;;;;;;;;;;;;;;;10.44;100.00;102169.25;5051196;28;19928;-73
2022/09/20 03:01:58;;;;;;;;;;;;;;;10.43;100.00;102151.66;5050111;28;19920;-73
2022/09/20 03:04:43;;;;;;;;;;;;;;;10.45;100.00;102162.19;5053083;28;19936;-72
2022/09/20 03:07:16;;;;;;;;;;;;;;;10.48;100.00;102166.53;5056771;28;19928;-73
2022/09/20 03:10:00;;;;;;;;;;;;;;;10.48;100.00;102169.19;5053252;28;19931;-73
2022/09/20 03:12:42;;;;;;;;;;;;;;;10.48;100.00;102171.81;5058804;28;20057;-73
2022/09/20 03:15:07;;;;;;;;;;;;;;;10.46;100.00;102162.16;5056330;28;19939;-72
2022/09/20 03:17:53;;;;;;;;;;;;;;;10.46;100.00;102166.56;5057405;28;19929;-72
2022/09/20 03:20:37;;;;;;;;;;;;;;;10.45;100.00;102172.75;5046852;28;20485;-73
2022/09/20 03:23:09;;;;;;;;;;;;;;;10.42;100.00;102163.13;5056267;28;19929;-72
2022/09/20 03:25:38;;;;;;;;;;;;;;;10.42;100.00;102164.88;5057872;28;20398;-72
2022/09/20 03:28:03;;;;;;;;;;;;;;;10.40;100.00;102164.91;5048797;28;19931;-72
2022/09/20 03:30:47;;;;;;;;;;;;;;;10.40;100.00;102158.75;5057246;28;19925;-72
2022/09/20 03:33:22;;;;;;;;;;;;;;;10.38;100.00;102155.25;5057633;28;20383;-71
2022/09/20 03:36:10;;;;;;;;;;;;;;;10.37;100.00;102158.81;5059202;28;19928;-72
2022/09/20 03:38:39;;;;;;;;;;;;;;;10.36;100.00;102155.31;5048565;28;20019;-72
2022/09/20 03:41:07;;;;;;;;;;;;;;;10.35;100.00;102156.19;5055242;28;19928;-72
2022/09/20 03:43:35;;;;;;;;;;;;;;;10.35;100.00;102158.84;5054328;28;19928;-73
2022/09/20 03:46:04;;;;;;;;;;;;;;;10.35;100.00;102161.47;5055591;28;20497;-72
2022/09/20 03:48:42;;;;;;;;;;;;;;;10.36;100.00;102163.25;5055509;28;19928;-72
2022/09/20 03:51:07;;;;;;;;;;;;;;;10.37;100.00;102159.69;5056808;28;19974;-72
2022/09/20 03:53:39;;;;;;;;;;;;;;;10.38;100.00;102166.72;5056700;28;20351;-72
2022/09/20 03:56:20;;;;;;;;;;;;;;;10.37;100.00;102162.34;5054143;28;19955;-72
2022/09/20 03:58:50;;;;;;;;;;;;;;;10.37;100.00;102162.34;5074343;28;19931;-71
2022/09/20 04:01:25;;;;;;;;;;;;;;;10.37;100.00;102167.63;5055773;28;20261;-72
2022/09/20 04:04:01;;;;;;;;;;;;;;;10.37;100.00;102169.41;5056179;28;20587;-72
2022/09/20 04:06:26;;;;;;;;;;;;;;;10.35;100.00;102166.78;5053453;28;19931;-72
2022/09/20 04:08:54;;;;;;;;;;;;;;;10.31;100.00;102159.84;5051246;28;20299;-72
2022/09/20 04:11:39;;;;;;;;;;;;;;;10.30;100.00;102171.34;5053241;28;20287;-73
2022/09/20 04:14:16;;;;;;;;;;;;;;;10.27;100.00;102166.09;5055417;28;19931;-73
2022/09/20 04:17:02;;;;;;;;;;;;;;;10.27;100.00;102163.44;5051355;28;20394;-73
2022/09/20 04:19:36;;;;;;;;;;;;;;;10.27;100.00;102168.75;5054682;28;19924;-73
2022/09/20 04:22:02;;;;;;;;;;;;;;;10.28;100.00;102173.13;5051833;28;19928;-72
2022/09/20 04:24:33;;;;;;;;;;;;;;;10.26;100.00;102173.19;5052196;28;19935;-72
2022/09/20 04:27:08;;;;;;;;;;;;;;;10.27;100.00;102174.03;5056737;28;19935;-73
2022/09/20 04:29:37;;;;;;;;;;;;;;;10.27;100.00;102176.69;5045648;28;19925;-72
2022/09/20 04:32:05;;;;;;;;;;;;;;;10.26;100.00;102189.06;5044620;28;19975;-72
2022/09/20 04:37:37;;;;;;;;;;;;;;;10.25;100.00;102187.28;5052643;28;19929;-72
2022/09/20 04:40:02;;;;;;;;;;;;;;;10.24;100.00;102193.50;5052652;28;19963;-73
2022/09/20 04:42:34;;;;;;;;;;;;;;;10.20;100.00;102197.13;5054883;28;20050;-73
2022/09/20 04:45:08;;;;;;;;;;;;;;;10.20;100.00;102191.84;5055204;28;19928;-72
2022/09/20 04:47:33;;;;;;;;;;;;;;;10.18;100.00;102189.22;5054558;28;19929;-72
2022/09/20 04:50:22;;;;;;;;;;;;;;;10.17;100.00;102192.78;5053172;28;21598;-73
2022/09/20 04:52:54;;;;;;;;;;;;;;;10.17;100.00;102195.44;5043819;28;19924;-73
2022/09/20 04:55:28;;;;;;;;;;;;;;;10.18;100.00;102198.94;5054361;28;20016;-73
2022/09/20 04:58:03;;;;;;;;;;;;;;;10.17;100.00;102198.06;5055071;28;20041;-73
2022/09/20 05:00:49;;;;;;;;;;;;;;;10.17;100.00;102198.06;5050516;28;19928;-73
2022/09/20 05:03:33;;;;;;;;;;;;;;;10.19;100.00;102200.69;5053307;28;19932;-73
2022/09/20 05:06:08;;;;;;;;;;;;;;;10.18;100.00;102196.28;5052637;28;20405;-72
2022/09/20 05:08:52;;;;;;;;;;;;;;;10.18;100.00;102199.81;5051636;28;19960;-71
2022/09/20 05:11:17;;;;;;;;;;;;;;;10.18;100.00;102194.53;5055267;28;20027;-72
2022/09/20 05:14:01;;;;;;;;;;;;;;;10.18;100.00;102194.53;5053198;28;19929;-73
2022/09/20 05:16:27;;;;;;;;;;;;;;;10.20;100.00;102202.44;5052248;28;19932;-72
2022/09/20 05:19:12;;;;;;;;;;;;;;;10.21;100.00;102200.63;5052105;28;20468;-72
2022/09/20 05:22:05;;;;;;;;;;;;;;;10.20;100.00;102205.09;5050253;28;19928;-73
2022/09/20 05:24:51;;;;;;;;;;;;;;;10.22;100.00;102202.38;5052797;28;19931;-72
2022/09/20 05:27:35;;;;;;;;;;;;;;;10.23;100.00;102205.00;5055258;28;19935;-72
2022/09/20 05:30:02;;;;;;;;;;;;;;;10.25;100.00;102202.31;5051180;28;20855;-73
2022/09/20 05:32:48;;;;;;;;;;;;;;;10.25;100.00;102202.31;5068242;28;19975;-73
2022/09/20 05:35:14;;;;;;;;;;;;;;;10.26;100.00;102194.34;5052903;28;19925;-73
2022/09/20 05:37:48;;;;;;;;;;;;;;;10.27;100.00;102196.09;5053930;28;20125;-73
2022/09/20 05:40:17;;;;;;;;;;;;;;;10.29;100.00;102196.03;5051315;28;19970;-74
2022/09/20 05:42:51;;;;;;;;;;;;;;;10.29;100.00;102202.22;5051192;28;19924;-73
2022/09/20 05:45:32;;;;;;;;;;;;;;;10.31;100.00;102196.91;5050587;28;19931;-72
2022/09/20 05:48:00;;;;;;;;;;;;;;;10.32;100.00;102199.53;5043337;28;19993;-73
2022/09/20 05:50:35;;;;;;;;;;;;;;;10.35;100.00;102209.13;5021941;28;19925;-73
2022/09/20 05:53:15;;;;;;;;;;;;;;;10.36;100.00;102207.38;5053286;28;19925;-73
2022/09/20 05:56:01;;;;;;;;;;;;;;;10.37;100.00;102212.66;5050913;28;20362;-73
2022/09/20 05:58:38;;;;;;;;;;;;;;;10.39;100.00;102218.75;5052615;28;19943;-73
2022/09/20 06:01:12;;;;;;;;;;;;;;;10.40;100.00;102209.91;5052176;28;19935;-73
2022/09/20 06:03:45;;;;;;;;;;;;;;;10.44;100.00;102219.56;5055202;28;19936;-72
2022/09/20 06:06:13;;;;;;;;;;;;;;;10.49;100.00;102221.22;5053930;28;19924;-73
2022/09/20 06:08:39;;;;;;;;;;;;;;;10.54;100.00;102222.00;5027314;28;19931;-72
2022/09/20 06:11:10;;;;;;;;;;;;;;;10.56;100.00;102220.16;5053629;28;19930;-72
2022/09/20 06:13:39;;;;;;;;;;;;;;;10.61;100.00;102233.34;5054170;28;20015;-72
2022/09/20 06:16:05;;;;;;;;;;;;;;;10.63;100.00;102232.38;5053996;28;19928;-73
2022/09/20 06:18:48;;;;;;;;;;;;;;;10.66;100.00;102232.31;5040285;28;19959;-72
2022/09/20 06:21:33;;;;;;;;;;;;;;;10.70;100.00;102236.63;5052386;28;20341;-72
2022/09/20 06:23:59;;;;;;;;;;;;;;;10.71;100.00;102235.72;5052440;28;19977;-72
2022/09/20 06:26:26;;;;;;;;;;;;;;;10.75;100.00;102246.22;5052730;28;19932;-73
2022/09/20 06:28:53;;;;;;;;;;;;;;;10.72;100.00;102242.75;5052608;28;20323;-73
2022/09/20 06:31:19;;;;;;;;;;;;;;;10.73;100.00;102240.97;5053106;28;20470;-73
2022/09/20 06:33:52;;;;;;;;;;;;;;;10.73;100.00;102239.19;5053616;28;19928;-71
2022/09/20 06:42:05;;;;;;;;;;;;;;;10.83;100.00;102254.84;5059109;28;19995;-75
2022/09/20 06:44:30;;;;;;;;;;;;;;;10.86;100.00;102254.81;5058454;28;19928;-74
2022/09/20 06:46:55;;;;;;;;;;;;;;;10.88;100.00;102252.97;5058821;28;19978;-74
2022/09/20 06:49:22;;;;;;;;;;;;;;;10.91;100.00;102252.03;5056889;28;19928;-74
2022/09/20 06:51:51;;;;;;;;;;;;;;;10.92;100.00;102254.66;5059614;28;20427;-72
2022/09/20 06:54:17;;;;;;;;;;;;;;;10.95;100.00;102253.72;5056233;28;20698;-73
2022/09/20 06:56:43;;;;;;;;;;;;;;;10.99;100.00;102256.25;5057146;28;20058;-72
2022/09/20 06:59:10;;;;;;;;;;;;;;;11.03;100.00;102251.75;5058692;28;19928;-73
2022/09/20 07:01:36;;;;;;;;;;;;;;;11.07;100.00;102257.84;5057546;28;20627;-74
2022/09/20 07:04:01;;;;;;;;;;;;;;;11.12;100.00;102250.66;5072053;28;19936;-74
2022/09/20 07:06:28;;;;;;;;;;;;;;;11.14;100.00;102248.81;5039892;28;19928;-73
2022/09/20 07:08:53;;;;;;;;;;;;;;;11.17;100.00;102248.72;5055798;28;20474;-73
2022/09/20 07:11:19;;;;;;;;;;;;;;;11.19;100.00;102252.22;5057314;28;19932;-73
2022/09/20 07:13:44;;;;;;;;;;;;;;;11.22;100.00;102249.47;5057696;28;19978;-76
2022/09/20 07:16:12;;;;;;;;;;;;;;;11.25;100.00;102248.53;5050302;28;19933;-74
2022/09/20 07:18:40;;;;;;;;;;;;;;;11.27;100.00;102254.66;5052505;28;19933;-74
2022/09/20 07:21:05;;;;;;;;;;;;;;;11.31;100.00;102258.09;5028813;28;20365;-73
2022/09/20 07:23:34;;;;;;;;;;;;;;;11.32;100.00;102254.56;5046260;28;20057;-73
2022/09/20 07:26:00;;;;;;;;;;;;;;;11.33;100.00;102259.81;5040811;28;19933;-74
2022/09/20 07:28:26;;;;;;;;;;;;;;;11.33;100.00;102256.31;5056265;28;20758;-73
2022/09/20 07:30:51;;;;;;;;;;;;;;;11.34;100.00;102260.69;5073519;28;19933;-73
2022/09/20 07:33:20;;;;;;;;;;;;;;;11.34;100.00;102258.03;5039952;28;19933;-73
2022/09/20 07:35:48;;;;;;;;;;;;;;;11.34;100.00;102258.88;5041649;28;19979;-73
2022/09/20 07:38:14;;;;;;;;;;;;;;;11.34;100.00;102268.66;5039612;28;20016;-73
2022/09/20 07:40:40;;;;;;;;;;;;;;;11.34;100.00;102271.28;5037127;28;19931;-73
2022/09/20 07:43:05;;;;;;;;;;;;;;;11.38;100.00;102273.81;5041654;28;20020;-72
2022/09/20 07:45:31;;;;;;;;;;;;;;;11.42;100.00;102269.31;5073784;28;19924;-71
2022/09/20 07:47:57;;;;;;;;;;;;;;;11.46;100.00;102278.06;5040395;28;20129;-71
2022/09/20 07:50:22;;;;;;;;;;;;;;;11.50;100.00;102280.56;5051817;28;19971;-71
2022/09/20 07:52:48;;;;;;;;;;;;;;;11.58;100.00;102276.84;5038672;28;20405;-71
2022/09/20 07:55:13;;;;;;;;;;;;;;;11.67;100.00;102276.63;5039269;28;20757;-71
2022/09/20 07:57:39;;;;;;;;;;;;;;;11.74;100.00;102286.16;5039208;28;19925;-71
2022/09/20 08:00:05;;;;;;;;;;;;;;;11.80;100.00;102285.97;5037287;28;20160;-71
2022/09/20 08:02:30;;;;;;;;;;;;;;;11.90;100.00;102285.72;5039033;28;19932;-71
2022/09/20 08:04:56;;;;;;;;;;;;;;;12.00;100.00;102292.53;5036615;28;20587;-71
2022/09/20 08:07:21;;;;;;;;;;;;;;;12.11;100.00;102286.94;5035484;28;20002;-72
2022/09/20 08:09:47;;;;;;;;;;;;;;;12.20;100.00;102293.75;5038598;28;19940;-71
2022/09/20 08:12:13;;;;;;;;;;;;;;;12.26;100.00;102296.22;5037970;28;19947;-71
2022/09/20 08:14:39;;;;;;;;;;;;;;;12.35;100.00;102288.00;5034387;28;19986;-71
2022/09/20 08:17:05;;;;;;;;;;;;;;;12.47;100.00;102296.47;5069313;28;19964;-71
2022/09/20 08:19:30;;;;;;;;;;;;;;;12.56;100.00;102295.34;5035793;28;20035;-71
2022/09/20 08:21:56;;;;;;;;;;;;;;;12.66;99.86;102296.81;5041571;28;19928;-71
2022/09/20 08:24:21;;;;;;;;;;;;;;;12.74;99.79;102296.56;5055607;28;20182;-71
2022/09/20 08:26:49;;;;;;;;;;;;;;;12.82;99.23;102291.00;5070296;28;19931;-71
2022/09/20 08:29:15;;;;;;;;;;;;;;;12.91;98.73;102298.66;5057199;28;19928;-71
2022/09/20 08:31:41;;;;;;;;;;;;;;;13.03;99.02;102303.59;5071321;28;19931;-71
2022/09/20 08:34:08;;;;;;;;;;;;;;;13.20;98.16;102306.63;5071393;28;19925;-71
2022/09/20 08:36:34;;;;;;;;;;;;;;;13.36;96.80;102302.53;5068409;28;19929;-70
2022/09/20 08:38:59;;;;;;;;;;;;;;;13.54;96.07;102314.38;5038384;28;19939;-71
2022/09/20 08:41:30;;;;;;;;;;;;;;;13.70;96.76;102312.06;5037917;28;19928;-69
2022/09/20 08:43:57;;;;;;;;;;;;;;;13.78;96.44;102302.91;5068254;28;20015;-70
2022/09/20 08:46:27;;;;;;;;;;;;;;;13.73;95.87;102310.19;5067318;28;19933;-70
2022/09/20 08:48:53;;;;;;;;;;;;;;;13.66;93.98;102310.41;5068583;28;19961;-70
2022/09/20 08:51:18;;;;;;;;;;;;;;;13.56;97.72;102312.53;5038929;28;19929;-72
2022/09/20 08:53:46;;;;;;;;;;;;;;;13.49;97.00;102307.44;5038754;28;19928;-76
2022/09/20 08:56:11;;;;;;;;;;;;;;;13.50;97.54;102309.22;5070512;28;19924;-71
2022/09/20 08:58:38;;;;;;;;;;;;;;;13.52;97.74;102315.34;5037668;28;19971;-71
2022/09/20 09:01:04;;;;;;;;;;;;;;;13.54;98.36;102318.81;5065469;28;20015;-71
2022/09/20 09:03:30;;;;;;;;;;;;;;;13.59;98.81;102319.53;5070665;28;19924;-71
2022/09/20 09:05:57;;;;;;;;;;;;;;;13.65;99.14;102321.09;5064468;28;19924;-71
2022/09/20 09:08:31;;;;;;;;;;;;;;;13.68;99.52;102313.88;5037450;28;19933;-71
2022/09/20 09:10:57;;;;;;;;;;;;;;;13.74;97.25;102322.56;5038134;28;19929;-71
2022/09/20 09:13:24;;;;;;;;;;;;;;;13.76;97.33;102320.72;5072376;28;20558;-71
2022/09/20 09:15:52;;;;;;;;;;;;;;;13.82;97.12;102321.38;5037164;28;20427;-71
2022/09/20 09:18:17;;;;;;;;;;;;;;;13.88;98.32;102316.78;5072040;28;19925;-70
2022/09/20 09:20:45;;;;;;;;;;;;;;;13.92;97.39;102321.91;5069962;28;20279;-71
2022/09/20 09:23:20;;;;;;;;;;;;;;;13.97;95.82;102319.09;5040968;28;19975;-72
2022/09/20 09:25:45;;;;;;;;;;;;;;;14.02;95.76;102325.13;5022655;28;19935;-72
2022/09/20 09:28:12;;;;;;;;;;;;;;;14.06;95.26;102318.75;5069916;28;19924;-72
2022/09/20 09:30:45;;;;;;;;;;;;;;;14.09;94.59;102328.41;5065863;28;19924;-72
2022/09/20 09:33:21;;;;;;;;;;;;;;;14.06;93.78;102324.06;5023803;28;19936;-72
2022/09/20 09:35:52;;;;;;;;;;;;;;;14.04;93.84;102328.59;5035739;28;19976;-72
2022/09/20 09:38:20;;;;;;;;;;;;;;;14.02;93.04;102321.56;5068440;28;19931;-72
2022/09/20 09:40:53;;;;;;;;;;;;;;;14.05;92.68;102324.16;5007283;28;19987;-72
2022/09/20 09:43:27;;;;;;;;;;;;;;;14.11;91.71;102315.94;5051615;28;20431;-71
2022/09/20 09:45:54;;;;;;;;;;;;;;;14.19;91.45;102316.50;5067473;28;20019;-73
2022/09/20 09:48:22;;;;;;;;;;;;;;;14.19;87.12;102324.50;5034655;28;19928;-72
2022/09/20 09:50:47;;;;;;;;;;;;;;;14.23;89.70;102323.44;5066800;28;19970;-71
2022/09/20 09:53:17;;;;;;;;;;;;;;;14.22;82.52;102324.38;5038058;28;20154;-71
2022/09/20 09:55:57;;;;;;;;;;;;;;;14.26;86.51;102330.44;5036797;28;20260;-71
2022/09/20 09:58:27;;;;;;;;;;;;;;;14.38;88.59;102334.44;5036953;28;19928;-70
2022/09/20 10:00:52;;;;;;;;;;;;;;;14.51;89.19;102341.03;5025917;28;19929;-71
2022/09/20 10:03:21;;;;;;;;;;;;;;;14.55;89.64;102336.50;5036827;28;19929;-71
2022/09/20 10:06:06;;;;;;;;;;;;;;;14.50;86.90;102331.31;5023790;28;19948;-71
2022/09/20 10:08:48;;;;;;;;;;;;;;;14.45;87.15;102335.09;5041877;28;19929;-71
2022/09/20 10:11:13;;;;;;;;;;;;;;;14.40;88.58;102341.44;5058205;28;19932;-71
2022/09/20 10:13:58;;;;;;;;;;;;;;;14.37;90.01;102338.03;5025820;28;19961;-71
2022/09/20 10:16:38;;;;;;;;;;;;;;;14.28;91.89;102344.59;5024438;28;20486;-71
2022/09/20 10:19:10;;;;;;;;;;;;;;;14.19;92.54;102337.81;5027010;28;19925;-71
2022/09/20 10:21:42;;;;;;;;;;;;;;;14.13;93.64;102343.38;5024516;28;19960;-71
2022/09/20 10:24:17;;;;;;;;;;;;;;;14.06;94.68;102350.69;5026422;28;20350;-71
2022/09/20 10:26:55;;;;;;;;;;;;;;;14.02;95.46;102338.44;5025685;28;19932;-71
2022/09/20 10:29:25;;;;;;;;;;;;;;;13.97;95.83;102341.28;5038884;28;20013;-71
2022/09/20 10:31:56;;;;;;;;;;;;;;;13.94;95.56;102351.16;5024436;28;20431;-69
2022/09/20 10:34:42;;;;;;;;;;;;;;;13.92;96.47;102348.53;5040894;28;20008;-69
2022/09/20 10:37:10;;;;;;;;;;;;;;;13.87;95.95;102354.94;5025925;28;19920;-71
2022/09/20 10:39:37;;;;;;;;;;;;;;;13.82;96.33;102350.66;5056982;28;19952;-71
2022/09/20 10:45:17;;;;;;;;;;;;;;;13.87;96.62;102354.94;5025559;28;19929;-70
2022/09/20 10:47:43;;;;;;;;;;;;;;;13.88;96.26;102360.22;5055742;28;20749;-70
2022/09/20 10:50:22;;;;;;;;;;;;;;;13.91;94.17;102356.56;5023646;28;20610;-70
2022/09/20 10:52:54;;;;;;;;;;;;;;;13.92;93.88;102364.53;5057849;28;19932;-71
2022/09/20 10:55:24;;;;;;;;;;;;;;;13.93;93.97;102365.38;5057236;28;19929;-70
2022/09/20 10:58:00;;;;;;;;;;;;;;;13.90;93.60;102362.84;5057555;28;19935;-71
2022/09/20 11:00:34;;;;;;;;;;;;;;;13.91;94.35;102362.78;5027233;28;19929;-71
2022/09/20 11:03:00;;;;;;;;;;;;;;;13.91;93.83;102369.88;5026677;28;20100;-71
2022/09/20 11:05:25;;;;;;;;;;;;;;;13.94;93.05;102361.81;5025491;28;19975;-70
2022/09/20 11:08:25;;;;;;;;;;;;;;;14.01;93.19;102362.44;5027141;28;19935;-70
2022/09/20 11:10:56;;;;;;;;;;;;;;;14.08;92.35;102370.16;5025464;28;19929;-70
2022/09/20 11:13:31;;;;;;;;;;;;;;;14.17;91.13;102373.41;5026361;28;19935;-70
2022/09/20 11:15:59;;;;;;;;;;;;;;;14.24;90.98;102366.94;5058203;28;20034;-71
2022/09/20 11:18:30;;;;;;;;;;;;;;;14.34;90.54;102368.31;5022716;28;20589;-71
2022/09/20 11:20:58;;;;;;;;;;;;;;;14.45;90.77;102367.94;5024690;28;19925;-71
2022/09/20 11:23:28;;;;;;;;;;;;;;;14.55;91.42;102364.91;5023197;28;19925;-71
2022/09/20 11:25:54;;;;;;;;;;;;;;;14.63;90.52;102373.47;5030122;28;19932;-71
2022/09/20 11:28:27;;;;;;;;;;;;;;;14.75;87.24;102370.38;5025181;28;20367;-71
2022/09/20 11:31:12;;;;;;;;;;;;;;;14.84;90.17;102381.63;5028882;28;19925;-71
2022/09/20 11:33:51;;;;;;;;;;;;;;;14.77;90.43;102386.31;5024241;28;19982;-71
2022/09/20 11:36:38;;;;;;;;;;;;;;;14.62;90.58;102387.75;5060048;28;20303;-71
2022/09/20 11:39:09;;;;;;;;;;;;;;;14.42;91.21;102394.69;5030232;28;20195;-71
2022/09/20 11:41:34;;;;;;;;;;;;;;;14.28;91.91;102387.22;5029738;28;19925;-71
2022/09/20 11:44:06;;;;;;;;;;;;;;;14.19;92.39;102384.88;5061379;28;20343;-71
2022/09/20 11:46:46;;;;;;;;;;;;;;;14.12;92.77;102381.59;5044828;28;19929;-70
2022/09/20 11:49:14;;;;;;;;;;;;;;;14.12;93.26;102387.75;5046434;28;19928;-71
2022/09/20 11:51:52;;;;;;;;;;;;;;;14.12;92.30;102387.75;5055209;28;20098;-71
2022/09/20 11:54:21;;;;;;;;;;;;;;;14.14;92.98;102387.72;5025725;28;19925;-71
2022/09/20 11:56:51;;;;;;;;;;;;;;;14.17;91.79;102384.91;5059227;28;19979;-70
2022/09/20 11:59:27;;;;;;;;;;;;;;;14.22;89.57;102396.28;5042453;28;19945;-70
2022/09/20 12:01:53;;;;;;;;;;;;;;;14.28;89.83;102389.00;5026160;28;19931;-70
2022/09/20 12:04:24;;;;;;;;;;;;;;;14.34;90.09;102389.63;5027389;28;21386;-71
2022/09/20 12:07:05;;;;;;;;;;;;;;;14.40;89.98;102394.75;5026738;28;20008;-71
2022/09/20 12:09:34;;;;;;;;;;;;;;;14.47;89.95;102395.41;5059096;28;20384;-70
2022/09/20 12:12:11;;;;;;;;;;;;;;;14.56;89.10;102390.63;5026007;28;19929;-71
2022/09/20 12:14:37;;;;;;;;;;;;;;;14.62;88.24;102387.75;5024838;28;19929;-69
2022/09/20 12:17:02;;;;;;;;;;;;;;;14.71;87.86;102389.19;5036886;28;21403;-70
2022/09/20 12:19:31;;;;;;;;;;;;;;;14.75;87.07;102396.16;5023045;28;21379;-70
2022/09/20 12:22:14;;;;;;;;;;;;;;;14.75;84.25;102391.72;5024015;28;20711;-71
2022/09/20 12:24:40;;;;;;;;;;;;;;;14.82;85.22;102389.66;5025155;28;19925;-70
2022/09/20 12:27:26;;;;;;;;;;;;;;;14.90;84.99;102397.38;5056075;28;21245;-70
2022/09/20 12:29:57;;;;;;;;;;;;;;;15.00;81.92;102387.22;5025524;28;20026;-70
2022/09/20 12:32:53;;;;;;;;;;;;;;;15.08;84.52;102393.09;5023624;28;19944;-70
2022/09/20 12:35:34;;;;;;;;;;;;;;;15.14;80.67;102387.53;5016147;28;19960;-71
2022/09/20 12:38:36;;;;;;;;;;;;;;;15.15;82.28;102385.75;5023478;28;19936;-70
2022/09/20 12:41:07;;;;;;;;;;;;;;;15.17;83.45;102381.19;5023903;28;20501;-71
2022/09/20 12:43:33;;;;;;;;;;;;;;;15.19;82.69;102387.34;5023100;28;19925;-70
2022/09/20 12:45:58;;;;;;;;;;;;;;;15.19;82.72;102384.66;5034773;28;19980;-70
2022/09/20 12:48:24;;;;;;;;;;;;;;;15.21;82.69;102372.16;5056513;28;19924;-70
2022/09/20 12:54:00;;;;;;;;;;;;;;;15.16;79.99;102380.31;5052030;28;19935;-71
2022/09/20 12:56:26;;;;;;;;;;;;;;;15.20;82.30;102376.59;5056690;28;20325;-70
2022/09/20 12:58:53;;;;;;;;;;;;;;;15.24;81.45;102376.50;5024613;28;19937;-71
2022/09/20 13:01:21;;;;;;;;;;;;;;;15.24;81.09;102371.16;5057179;28;19936;-71
2022/09/20 13:03:48;;;;;;;;;;;;;;;15.26;80.85;102372.81;5023849;28;19971;-76
2022/09/20 13:06:15;;;;;;;;;;;;;;;15.28;79.81;102373.63;5041009;28;19971;-72